Time;durP1;ratioP1;P1;durP2;ratioP2;P2;SDS_P1;SDS_P2;PMS_P1;PMS_P2;Temp;Humidity;BMP_temperature;BMP_pressure;BME280_temperature;BME280_humidity;BME280_pressure;Samples;Min_cycle;Max_cycle;Signal;HPM_P1;HPM_P2
2022/03/28 00:01:09;;;;;;;15.13;7.10;;;5.90;81.30;;;;;;5095114;28;20051;-66
2022/03/28 00:03:35;;;;;;;10.88;6.22;;;5.90;81.50;;;;;;5091737;28;20480;-66
2022/03/28 00:06:02;;;;;;;22.80;7.88;;;5.90;81.60;;;;;;5108483;27;20391;-66
2022/03/28 00:08:28;;;;;;;47.35;8.48;;;5.90;81.70;;;;;;5096473;28;20050;-66
2022/03/28 00:10:54;;;;;;;22.63;7.83;;;5.90;82.00;;;;;;5125057;27;20036;-66
2022/03/28 00:13:20;;;;;;;20.98;8.07;;;6.00;81.60;;;;;;5124547;27;20372;-66
2022/03/28 00:15:47;;;;;;;16.17;7.05;;;5.90;81.80;;;;;;5077478;28;20455;-66
2022/03/28 00:18:12;;;;;;;27.20;8.13;;;5.90;82.00;;;;;;5094419;28;20024;-66
2022/03/28 00:20:39;;;;;;;19.00;7.40;;;5.90;82.10;;;;;;5106984;28;20042;-66
2022/03/28 00:23:06;;;;;;;19.27;8.10;;;6.00;82.00;;;;;;5108221;28;20543;-66
2022/03/28 00:25:32;;;;;;;47.75;8.65;;;6.00;82.00;;;;;;5098608;27;20487;-66
2022/03/28 00:27:58;;;;;;;25.83;8.18;;;6.00;81.90;;;;;;5063966;28;20059;-66
2022/03/28 00:30:25;;;;;;;16.93;7.97;;;6.00;81.90;;;;;;5129040;27;20048;-66
2022/03/28 00:32:50;;;;;;;16.20;8.57;;;5.90;81.70;;;;;;5078406;28;20408;-66
2022/03/28 00:35:17;;;;;;;30.97;8.20;;;5.90;81.80;;;;;;5102455;28;20053;-66
2022/03/28 00:37:43;;;;;;;11.27;7.50;;;5.90;81.70;;;;;;5097995;28;20043;-66
2022/03/28 00:40:10;;;;;;;16.58;7.60;;;5.90;81.60;;;;;;5107587;28;20036;-66
2022/03/28 00:42:37;;;;;;;16.85;7.70;;;5.90;81.70;;;;;;5096178;28;20580;-66
2022/03/28 00:45:07;;;;;;;21.13;9.38;;;5.90;81.70;;;;;;5102671;28;20035;-66
2022/03/28 00:47:33;;;;;;;15.20;8.43;;;5.90;81.80;;;;;;5091198;28;20158;-66
2022/03/28 00:49:59;;;;;;;38.08;9.30;;;5.90;81.70;;;;;;5107173;28;20085;-66
2022/03/28 00:52:25;;;;;;;20.77;8.13;;;5.80;81.70;;;;;;5107040;28;20450;-66
2022/03/28 00:54:51;;;;;;;15.03;7.37;;;5.90;81.80;;;;;;5125774;27;20117;-66
2022/03/28 00:57:17;;;;;;;13.97;8.50;;;5.80;81.80;;;;;;5090975;28;20649;-66
2022/03/28 00:59:43;;;;;;;14.02;9.07;;;5.80;81.80;;;;;;5123884;27;20281;-66
2022/03/28 01:02:09;;;;;;;12.40;8.32;;;5.80;81.90;;;;;;5107258;28;20679;-66
2022/03/28 01:04:37;;;;;;;12.00;8.03;;;5.80;81.80;;;;;;5092405;28;20046;-66
2022/03/28 01:07:06;;;;;;;14.27;8.35;;;5.80;81.90;;;;;;5093807;28;20567;-66
2022/03/28 01:09:32;;;;;;;16.65;8.07;;;5.80;82.00;;;;;;5099255;28;20044;-66
2022/03/28 01:12:00;;;;;;;15.80;8.45;;;5.80;82.10;;;;;;5080118;28;20050;-66
2022/03/28 01:14:26;;;;;;;14.73;8.05;;;5.80;81.90;;;;;;5079904;28;20031;-66
2022/03/28 01:19:36;;;;;;;14.57;8.20;;;5.80;81.90;;;;;;5109271;27;20050;-66
2022/03/28 01:22:02;;;;;;;14.30;7.60;;;5.80;82.10;;;;;;5073307;28;20364;-66
2022/03/28 01:24:28;;;;;;;14.37;8.40;;;5.80;81.90;;;;;;5089209;28;20040;-66
2022/03/28 01:26:55;;;;;;;14.70;8.13;;;5.80;81.90;;;;;;5090103;28;20055;-66
2022/03/28 01:29:21;;;;;;;11.38;8.05;;;5.70;82.10;;;;;;5070490;28;20091;-66
2022/03/28 01:31:46;;;;;;;11.90;7.53;;;5.80;82.00;;;;;;5085617;28;20083;-66
2022/03/28 01:34:20;;;;;;;14.90;8.47;;;5.70;81.70;;;;;;5069447;28;20540;-66
2022/03/28 01:36:47;;;;;;;12.98;8.52;;;5.70;82.00;;;;;;5052529;28;20430;-66
2022/03/28 01:39:17;;;;;;;12.80;7.60;;;5.70;81.80;;;;;;5069663;28;20576;-66
2022/03/28 01:41:44;;;;;;;14.02;8.40;;;5.70;81.60;;;;;;5099663;28;20039;-66
2022/03/28 01:44:10;;;;;;;14.38;7.93;;;5.70;81.60;;;;;;5068610;28;20867;-66
2022/03/28 01:46:46;;;;;;;13.23;8.07;;;5.70;81.60;;;;;;5086062;28;20071;-66
2022/03/28 01:49:18;;;;;;;13.25;8.30;;;5.70;81.70;;;;;;5104660;28;20071;-66
2022/03/28 01:51:45;;;;;;;12.98;7.93;;;5.70;82.10;;;;;;5085358;28;20356;-66
2022/03/28 01:54:12;;;;;;;15.68;8.60;;;5.70;82.10;;;;;;5086435;28;20424;-66
2022/03/28 01:56:38;;;;;;;16.48;8.48;;;5.70;82.10;;;;;;5086296;28;20082;-66
2022/03/28 01:59:06;;;;;;;15.65;8.27;;;5.70;81.60;;;;;;5086481;28;20448;-66
2022/03/28 02:01:32;;;;;;;13.20;7.40;;;5.70;81.70;;;;;;5085621;28;20054;-66
2022/03/28 02:03:58;;;;;;;14.13;8.00;;;5.70;81.70;;;;;;5085809;28;20081;-66
2022/03/28 02:06:24;;;;;;;13.97;8.53;;;5.70;81.80;;;;;;5050216;28;20048;-66
2022/03/28 02:08:50;;;;;;;14.57;8.35;;;5.70;81.90;;;;;;5119705;27;20062;-66
2022/03/28 02:11:16;;;;;;;11.73;8.20;;;5.70;81.90;;;;;;5085040;28;20044;-66
2022/03/28 02:13:42;;;;;;;13.10;8.27;;;5.70;81.80;;;;;;5067884;28;20106;-66
2022/03/28 02:16:08;;;;;;;14.97;9.00;;;5.70;81.80;;;;;;5086570;28;20028;-66
2022/03/28 02:18:34;;;;;;;12.57;7.88;;;5.70;81.80;;;;;;5119581;27;20047;-66
2022/03/28 02:21:00;;;;;;;13.10;8.20;;;5.70;81.70;;;;;;5085817;28;20040;-66
2022/03/28 02:23:26;;;;;;;13.07;8.23;;;5.60;81.80;;;;;;5067191;28;20040;-66
2022/03/28 02:25:51;;;;;;;12.43;8.63;;;5.60;81.80;;;;;;5085681;28;20048;-66
2022/03/28 02:28:17;;;;;;;12.80;8.37;;;5.70;81.90;;;;;;5088227;28;20895;-66
2022/03/28 02:30:43;;;;;;;15.07;9.03;;;5.70;81.80;;;;;;5097980;28;20069;-66
2022/03/28 02:33:09;;;;;;;15.87;9.03;;;5.70;81.80;;;;;;5083282;28;20122;-66
2022/03/28 02:35:35;;;;;;;14.27;8.20;;;5.70;81.80;;;;;;5090023;28;20161;-66
2022/03/28 02:38:01;;;;;;;12.63;8.45;;;5.70;81.80;;;;;;5068953;28;20692;-66
2022/03/28 02:40:28;;;;;;;12.40;8.73;;;5.60;81.70;;;;;;5089265;28;20409;-66
2022/03/28 02:42:57;;;;;;;15.45;8.77;;;5.60;81.60;;;;;;5084692;28;20036;-66
2022/03/28 02:45:33;;;;;;;11.18;8.32;;;5.60;81.50;;;;;;5085950;28;20070;-66
2022/03/28 02:47:59;;;;;;;11.70;8.13;;;5.60;81.40;;;;;;5090811;28;20082;-66
2022/03/28 02:50:29;;;;;;;11.67;7.93;;;5.60;81.40;;;;;;5071693;28;20071;-66
2022/03/28 02:52:55;;;;;;;12.88;7.28;;;5.60;81.40;;;;;;5092244;28;20043;-66
2022/03/28 02:55:21;;;;;;;10.45;7.82;;;5.60;81.60;;;;;;5086632;28;20055;-66
2022/03/28 02:57:47;;;;;;;9.40;7.60;;;5.60;81.60;;;;;;5088409;28;20047;-66
2022/03/28 03:00:13;;;;;;;8.73;7.43;;;5.60;81.40;;;;;;5084689;28;20547;-66
2022/03/28 03:02:40;;;;;;;9.35;7.57;;;5.60;81.40;;;;;;5084480;28;20055;-66
2022/03/28 03:05:06;;;;;;;13.38;8.93;;;5.60;81.50;;;;;;5086263;28;20035;-66
2022/03/28 03:07:33;;;;;;;14.75;8.35;;;5.50;81.50;;;;;;5089728;28;20134;-66
2022/03/28 03:09:59;;;;;;;11.98;8.25;;;5.50;81.50;;;;;;5084246;28;20517;-66
2022/03/28 03:12:24;;;;;;;10.20;8.27;;;5.50;81.50;;;;;;5054867;28;20131;-66
2022/03/28 03:14:51;;;;;;;10.63;7.53;;;5.50;81.50;;;;;;5076779;28;20395;-66
2022/03/28 03:17:18;;;;;;;13.20;8.73;;;5.50;81.60;;;;;;5085141;28;20044;-66
2022/03/28 03:19:44;;;;;;;13.32;8.07;;;5.50;81.50;;;;;;5070340;28;20516;-66
2022/03/28 03:22:11;;;;;;;13.98;8.82;;;5.50;81.60;;;;;;5092884;28;20046;-66
2022/03/28 03:24:37;;;;;;;12.25;8.38;;;5.40;81.60;;;;;;5086364;28;20066;-66
2022/03/28 03:27:03;;;;;;;16.58;8.88;;;5.50;81.60;;;;;;5091323;28;20382;-66
2022/03/28 03:29:29;;;;;;;11.88;8.38;;;5.40;81.50;;;;;;5070026;28;20099;-66
2022/03/28 03:31:55;;;;;;;16.00;8.80;;;5.50;81.70;;;;;;5083215;28;20516;-66
2022/03/28 03:34:20;;;;;;;12.80;8.50;;;5.40;81.80;;;;;;5068297;28;20082;-66
2022/03/28 03:36:46;;;;;;;14.73;8.90;;;5.40;81.60;;;;;;5084422;28;20040;-66
2022/03/28 03:39:12;;;;;;;15.97;8.87;;;5.40;81.70;;;;;;5067041;28;20079;-66
2022/03/28 03:41:39;;;;;;;12.02;8.60;;;5.40;81.60;;;;;;5084232;28;20055;-66
2022/03/28 03:44:06;;;;;;;13.98;9.13;;;5.40;81.70;;;;;;5062049;28;20074;-66
2022/03/28 03:46:32;;;;;;;16.58;9.40;;;5.40;81.50;;;;;;5101078;28;20039;-66
2022/03/28 03:48:58;;;;;;;16.27;9.32;;;5.40;81.60;;;;;;5101753;28;20130;-66
2022/03/28 03:51:24;;;;;;;15.67;8.83;;;5.40;81.70;;;;;;5084844;28;20127;-66
2022/03/28 03:53:50;;;;;;;16.63;9.10;;;5.40;81.80;;;;;;5090628;28;20369;-66
2022/03/28 03:56:16;;;;;;;21.37;8.37;;;5.40;81.60;;;;;;5067729;28;20552;-66
2022/03/28 03:58:41;;;;;;;13.30;7.93;;;5.40;81.70;;;;;;5067517;28;20440;-66
2022/03/28 04:01:08;;;;;;;18.17;8.17;;;5.40;81.70;;;;;;5067819;28;20049;-66
2022/03/28 04:03:38;;;;;;;17.38;8.38;;;5.40;81.70;;;;;;5067686;28;20051;-66
2022/03/28 04:06:03;;;;;;;12.90;7.47;;;5.40;81.60;;;;;;5066575;28;20044;-66
2022/03/28 04:08:29;;;;;;;13.73;7.80;;;5.40;81.60;;;;;;5084838;28;20046;-66
2022/03/28 04:10:55;;;;;;;12.10;7.13;;;5.40;81.80;;;;;;5121500;27;20059;-66
2022/03/28 04:13:21;;;;;;;9.13;6.47;;;5.30;81.70;;;;;;5101956;28;20048;-66
2022/03/28 04:15:48;;;;;;;9.75;5.57;;;5.30;81.80;;;;;;5124053;27;20047;-66
2022/03/28 04:18:14;;;;;;;10.50;5.43;;;5.30;81.80;;;;;;5084666;28;20041;-66
2022/03/28 04:20:40;;;;;;;11.20;4.67;;;5.30;81.90;;;;;;5061927;28;20456;-66
2022/03/28 04:23:05;;;;;;;7.60;4.87;;;5.30;81.90;;;;;;5121820;27;20285;-66
2022/03/28 04:25:31;;;;;;;7.63;3.67;;;5.20;81.90;;;;;;5054225;28;20481;-66
2022/03/28 04:27:58;;;;;;;6.77;3.87;;;5.20;81.80;;;;;;5073239;28;20427;-66
2022/03/28 04:30:24;;;;;;;7.00;3.97;;;5.20;81.70;;;;;;5070354;28;20040;-66
2022/03/28 04:32:50;;;;;;;5.97;3.63;;;5.10;81.80;;;;;;5098006;28;20043;-66
2022/03/28 04:35:16;;;;;;;7.47;4.15;;;5.10;81.80;;;;;;5075182;28;20511;-66
2022/03/28 04:37:43;;;;;;;5.73;3.50;;;5.20;81.90;;;;;;5087997;28;20097;-66
2022/03/28 04:40:12;;;;;;;5.32;3.45;;;5.20;81.50;;;;;;5087502;28;20044;-66
2022/03/28 04:42:38;;;;;;;6.57;3.05;;;5.10;81.40;;;;;;5082593;28;20051;-66
2022/03/28 04:45:05;;;;;;;5.53;3.43;;;5.10;81.40;;;;;;5070650;28;20043;-66
2022/03/28 04:47:31;;;;;;;9.25;3.63;;;5.00;81.60;;;;;;5054904;28;20048;-66
2022/03/28 04:49:57;;;;;;;5.88;3.10;;;5.00;81.60;;;;;;5097243;28;20524;-66
2022/03/28 04:52:23;;;;;;;6.10;3.53;;;5.00;81.60;;;;;;5054747;28;20409;-66
2022/03/28 04:54:49;;;;;;;5.85;3.03;;;4.90;81.60;;;;;;5080458;28;20067;-66
2022/03/28 04:57:15;;;;;;;6.43;3.10;;;4.90;81.80;;;;;;5088321;28;20082;-66
2022/03/28 04:59:41;;;;;;;7.60;3.90;;;5.00;81.80;;;;;;5086438;28;20460;-66
2022/03/28 05:02:06;;;;;;;6.17;3.13;;;4.90;81.80;;;;;;5070099;28;20047;-66
2022/03/28 05:04:32;;;;;;;6.40;3.03;;;5.00;81.90;;;;;;5087175;28;20724;-66
2022/03/28 05:06:59;;;;;;;5.35;3.17;;;5.00;81.80;;;;;;5070036;28;20043;-66
2022/03/28 05:09:25;;;;;;;6.28;3.38;;;5.00;81.80;;;;;;5073625;28;20047;-66
2022/03/28 05:11:50;;;;;;;6.57;3.47;;;4.90;81.80;;;;;;5070988;28;20420;-66
2022/03/28 05:14:18;;;;;;;9.50;3.70;;;4.90;81.90;;;;;;5079180;28;20387;-65
2022/03/28 05:16:44;;;;;;;5.38;3.25;;;5.00;82.00;;;;;;5078627;28;20073;-66
2022/03/28 05:19:09;;;;;;;8.23;3.58;;;5.00;81.80;;;;;;5095417;28;20031;-66
2022/03/28 05:21:35;;;;;;;7.43;3.83;;;5.00;82.00;;;;;;5082182;28;20065;-66
2022/03/28 05:24:01;;;;;;;6.63;3.70;;;5.00;82.10;;;;;;5052947;28;20036;-66
2022/03/28 05:26:27;;;;;;;10.73;4.40;;;5.00;82.10;;;;;;5067689;28;20091;-66
2022/03/28 05:28:53;;;;;;;6.73;3.90;;;5.00;82.30;;;;;;5076202;28;20412;-66
2022/03/28 05:31:18;;;;;;;11.47;4.40;;;5.00;82.20;;;;;;5087990;28;20113;-66
2022/03/28 05:33:44;;;;;;;9.20;4.33;;;5.10;82.10;;;;;;5072395;28;20321;-65
2022/03/28 05:36:10;;;;;;;8.33;4.60;;;5.00;82.20;;;;;;5049924;28;20377;-65
2022/03/28 05:38:36;;;;;;;5.97;3.93;;;5.00;82.20;;;;;;5052135;28;20120;-65
2022/03/28 05:41:05;;;;;;;8.82;4.47;;;5.00;82.30;;;;;;5085660;28;20051;-66
2022/03/28 05:43:32;;;;;;;7.95;4.43;;;5.00;82.50;;;;;;5056991;28;20048;-65
2022/03/28 05:45:58;;;;;;;9.32;4.30;;;5.00;82.50;;;;;;5094583;28;20127;-66
2022/03/28 05:48:23;;;;;;;6.67;4.20;;;5.00;82.70;;;;;;5065267;28;20130;-66
2022/03/28 05:50:49;;;;;;;9.27;5.17;;;5.00;82.60;;;;;;5082385;28;20054;-66
2022/03/28 05:53:15;;;;;;;7.77;4.83;;;5.00;82.70;;;;;;5069236;28;20042;-66
2022/03/28 05:55:42;;;;;;;9.10;4.87;;;5.10;82.60;;;;;;5104738;28;20096;-66
2022/03/28 05:58:08;;;;;;;9.25;5.07;;;5.10;82.50;;;;;;5084966;28;20491;-66
2022/03/28 06:00:36;;;;;;;17.38;4.60;;;5.10;82.70;;;;;;5079652;28;20393;-66
2022/03/28 06:03:02;;;;;;;10.45;5.55;;;5.10;82.60;;;;;;5086916;28;20036;-66
2022/03/28 06:05:27;;;;;;;13.00;5.65;;;5.10;82.50;;;;;;5073593;28;20040;-66
2022/03/28 06:07:53;;;;;;;9.83;5.03;;;5.10;82.60;;;;;;5079038;28;20043;-66
2022/03/28 06:10:19;;;;;;;7.87;4.40;;;5.10;82.50;;;;;;5072147;28;20156;-66
2022/03/28 06:12:44;;;;;;;8.07;4.10;;;5.10;82.60;;;;;;5084050;28;20437;-66
2022/03/28 06:15:10;;;;;;;7.97;4.70;;;5.10;82.50;;;;;;5080982;28;20050;-66
2022/03/28 06:17:36;;;;;;;8.63;5.00;;;5.10;82.60;;;;;;5103782;28;20047;-66
2022/03/28 06:20:04;;;;;;;9.13;5.13;;;5.10;82.60;;;;;;5074939;28;20286;-66
2022/03/28 06:22:30;;;;;;;11.50;5.03;;;5.20;82.60;;;;;;5098668;28;20502;-66
2022/03/28 06:24:56;;;;;;;8.67;4.70;;;5.20;82.70;;;;;;5059196;28;20054;-66
2022/03/28 06:27:24;;;;;;;7.60;4.50;;;5.20;82.50;;;;;;5076685;28;20055;-66
2022/03/28 06:29:53;;;;;;;6.70;4.10;;;5.30;82.50;;;;;;5090179;28;20060;-66
2022/03/28 06:32:19;;;;;;;8.77;4.60;;;5.30;82.20;;;;;;5095428;28;20046;-66
2022/03/28 06:34:45;;;;;;;6.75;4.25;;;5.30;82.10;;;;;;5090019;28;20674;-66
2022/03/28 06:37:11;;;;;;;7.43;4.40;;;5.30;82.20;;;;;;5057295;28;20047;-66
2022/03/28 06:39:36;;;;;;;8.60;5.30;;;5.30;82.20;;;;;;5069442;28;20044;-66
2022/03/28 06:42:03;;;;;;;13.30;6.40;;;5.30;82.30;;;;;;5072250;28;20773;-66
2022/03/28 06:44:30;;;;;;;11.65;7.18;;;5.30;82.40;;;;;;5067732;28;20043;-66
2022/03/28 06:46:56;;;;;;;10.82;6.38;;;5.30;82.10;;;;;;5060728;28;20086;-66
2022/03/28 06:49:22;;;;;;;9.13;5.85;;;5.20;82.20;;;;;;5079928;28;20452;-66
2022/03/28 06:51:48;;;;;;;9.80;5.17;;;5.30;82.20;;;;;;5080774;28;20036;-66
2022/03/28 06:54:15;;;;;;;8.57;5.33;;;5.30;81.90;;;;;;5092168;28;20778;-66
2022/03/28 06:56:42;;;;;;;10.65;5.20;;;5.30;82.00;;;;;;5090612;28;20043;-66
2022/03/28 06:59:08;;;;;;;9.10;5.25;;;5.40;81.90;;;;;;5078528;28;20039;-66
2022/03/28 07:01:36;;;;;;;9.38;5.30;;;5.30;81.80;;;;;;5087330;28;20591;-66
2022/03/28 07:04:03;;;;;;;9.18;4.65;;;5.40;81.80;;;;;;5049256;28;20495;-66
2022/03/28 07:06:29;;;;;;;9.07;5.20;;;5.40;81.50;;;;;;5086777;28;20565;-66
2022/03/28 07:08:54;;;;;;;11.40;5.88;;;5.40;81.40;;;;;;5086516;28;20123;-66
2022/03/28 07:11:20;;;;;;;6.53;3.93;;;5.40;81.40;;;;;;5081173;28;20126;-65
2022/03/28 07:13:46;;;;;;;7.57;3.87;;;5.40;81.50;;;;;;5076637;28;20052;-65
2022/03/28 07:16:12;;;;;;;7.33;4.50;;;5.40;81.30;;;;;;5099445;28;20042;-65
2022/03/28 07:18:37;;;;;;;7.27;4.10;;;5.40;81.50;;;;;;5093687;28;20377;-65
2022/03/28 07:21:03;;;;;;;6.70;3.73;;;5.50;81.30;;;;;;5075638;28;20500;-66
2022/03/28 07:23:30;;;;;;;7.53;3.47;;;5.50;81.40;;;;;;5068429;28;20123;-66
2022/03/28 07:25:56;;;;;;;7.55;3.80;;;5.60;81.20;;;;;;5068444;28;20059;-66
2022/03/28 07:28:22;;;;;;;7.57;3.92;;;5.60;81.10;;;;;;5084911;28;20080;-66
2022/03/28 07:30:48;;;;;;;8.13;4.03;;;5.60;81.10;;;;;;5084667;28;20056;-66
2022/03/28 07:33:14;;;;;;;6.70;3.53;;;5.60;81.20;;;;;;5079282;28;20629;-66
2022/03/28 07:35:40;;;;;;;8.40;4.35;;;5.70;81.00;;;;;;5068730;28;20369;-66
2022/03/28 07:38:08;;;;;;;6.85;3.47;;;5.70;81.00;;;;;;5084698;28;20416;-66
2022/03/28 07:40:40;;;;;;;6.22;3.45;;;5.80;81.00;;;;;;5085736;28;20040;-66
2022/03/28 07:43:07;;;;;;;5.60;3.10;;;5.80;81.20;;;;;;5083904;28;20040;-66
2022/03/28 07:45:34;;;;;;;6.93;3.30;;;5.90;81.30;;;;;;5089222;28;20626;-66
2022/03/28 07:48:00;;;;;;;6.38;3.50;;;6.00;80.90;;;;;;5105404;28;20088;-66
2022/03/28 07:50:26;;;;;;;7.17;3.80;;;6.00;80.70;;;;;;5088912;28;20043;-66
2022/03/28 07:52:52;;;;;;;5.97;3.43;;;6.10;80.50;;;;;;5084196;28;20555;-66
2022/03/28 07:55:18;;;;;;;5.95;3.33;;;6.20;80.70;;;;;;5089209;28;20577;-66
2022/03/28 07:57:44;;;;;;;6.57;3.17;;;6.20;80.50;;;;;;5089119;28;20059;-66
2022/03/28 08:00:13;;;;;;;6.18;3.70;;;6.20;80.40;;;;;;5099445;28;20516;-66
2022/03/28 08:02:40;;;;;;;5.88;3.72;;;6.30;80.20;;;;;;5085545;28;20086;-65
2022/03/28 08:05:07;;;;;;;6.63;3.63;;;6.20;79.80;;;;;;5122899;27;20444;-65
2022/03/28 08:07:33;;;;;;;8.07;4.00;;;6.30;80.10;;;;;;5105719;28;20732;-65
2022/03/28 08:10:00;;;;;;;7.35;4.10;;;6.40;80.20;;;;;;5088121;28;20044;-66
2022/03/28 08:12:25;;;;;;;7.07;4.10;;;6.40;80.20;;;;;;5087777;28;20040;-66
2022/03/28 08:14:51;;;;;;;6.53;3.73;;;6.50;80.10;;;;;;5071168;28;20051;-66
2022/03/28 08:17:20;;;;;;;5.47;3.53;;;6.60;80.00;;;;;;5071442;28;20036;-66
2022/03/28 08:19:46;;;;;;;5.43;3.33;;;6.50;79.60;;;;;;5071573;28;20177;-66
2022/03/28 08:22:13;;;;;;;5.03;2.90;;;6.60;79.80;;;;;;5087150;28;20040;-66
2022/03/28 08:24:38;;;;;;;5.43;2.80;;;6.60;79.40;;;;;;5091625;28;20069;-66
2022/03/28 08:27:05;;;;;;;5.40;3.43;;;6.70;79.30;;;;;;5094047;28;20039;-66
2022/03/28 08:29:32;;;;;;;5.20;3.25;;;6.70;79.00;;;;;;5064551;28;20040;-66
2022/03/28 08:32:00;;;;;;;7.38;3.90;;;6.80;78.70;;;;;;5056905;28;20515;-67
2022/03/28 08:34:26;;;;;;;7.15;4.43;;;6.80;78.70;;;;;;5055567;28;20035;-66
2022/03/28 08:36:52;;;;;;;7.37;4.33;;;6.80;78.50;;;;;;5067651;28;20025;-66
2022/03/28 08:39:17;;;;;;;6.87;4.53;;;6.80;78.20;;;;;;5066840;28;20157;-66
2022/03/28 08:41:47;;;;;;;7.43;4.10;;;6.80;78.10;;;;;;5067581;28;20032;-66
2022/03/28 08:44:13;;;;;;;7.47;4.75;;;6.90;78.10;;;;;;5063831;28;20040;-66
2022/03/28 08:46:41;;;;;;;6.47;4.20;;;6.80;78.20;;;;;;5067214;28;20408;-66
2022/03/28 08:49:09;;;;;;;5.95;3.65;;;6.90;78.50;;;;;;5066715;28;20135;-66
2022/03/28 08:51:35;;;;;;;6.07;3.78;;;7.00;78.10;;;;;;5050456;28;20102;-66
2022/03/28 08:54:01;;;;;;;4.53;3.03;;;7.10;78.00;;;;;;5067406;28;20496;-66
2022/03/28 08:56:27;;;;;;;6.22;4.15;;;7.20;77.10;;;;;;5049402;28;20302;-66
2022/03/28 08:58:53;;;;;;;8.33;4.03;;;7.20;76.50;;;;;;5066024;28;20041;-66
2022/03/28 09:01:23;;;;;;;10.97;7.23;;;7.20;77.10;;;;;;5040780;28;20041;-66
2022/03/28 09:03:50;;;;;;;8.07;5.13;;;7.30;76.90;;;;;;5067322;28;20098;-66
2022/03/28 09:06:34;;;;;;;8.27;4.85;;;7.40;76.50;;;;;;5067298;28;20417;-66
2022/03/28 09:09:18;;;;;;;8.00;5.40;;;7.50;76.20;;;;;;5066525;28;20048;-66
2022/03/28 09:11:47;;;;;;;7.20;4.68;;;7.40;76.10;;;;;;5058249;28;20469;-66
2022/03/28 09:14:34;;;;;;;6.82;4.43;;;7.50;76.10;;;;;;5066869;28;20036;-66
2022/03/28 09:17:00;;;;;;;7.22;4.70;;;7.50;76.40;;;;;;5066929;28;20467;-66
2022/03/28 09:19:26;;;;;;;7.60;4.93;;;7.60;76.30;;;;;;5066556;28;20048;-66
2022/03/28 09:21:52;;;;;;;8.90;5.22;;;7.70;75.80;;;;;;5083511;28;20040;-66
2022/03/28 09:24:17;;;;;;;7.67;4.67;;;7.70;75.80;;;;;;5049943;28;20036;-66
2022/03/28 09:26:43;;;;;;;7.07;5.10;;;7.70;75.00;;;;;;5050141;28;20119;-66
2022/03/28 09:29:09;;;;;;;9.97;5.73;;;7.80;75.60;;;;;;5075516;28;20063;-66
2022/03/28 09:31:37;;;;;;;8.47;5.93;;;7.80;75.40;;;;;;5075090;28;20125;-66
2022/03/28 09:34:13;;;;;;;8.73;6.72;;;7.90;75.40;;;;;;5095499;28;20044;-66
2022/03/28 09:36:53;;;;;;;8.25;6.15;;;8.00;75.40;;;;;;5089709;28;20043;-66
2022/03/28 09:39:24;;;;;;;11.38;6.38;;;8.00;75.60;;;;;;5085762;28;20036;-66
2022/03/28 09:42:01;;;;;;;8.60;6.43;;;8.10;75.30;;;;;;5090697;28;20059;-66
2022/03/28 09:44:53;;;;;;;9.13;6.80;;;8.10;74.30;;;;;;5089253;28;20766;-66
2022/03/28 09:47:24;;;;;;;7.72;6.65;;;8.10;74.60;;;;;;5090911;28;20474;-67
2022/03/28 09:49:54;;;;;;;9.35;7.22;;;8.20;74.90;;;;;;5060896;28;20505;-67
2022/03/28 09:52:25;;;;;;;12.00;7.25;;;8.30;74.80;;;;;;5074175;28;20181;-67
2022/03/28 09:54:56;;;;;;;9.73;6.65;;;8.40;73.90;;;;;;5078512;28;20039;-67
2022/03/28 09:57:25;;;;;;;9.45;6.88;;;8.40;74.10;;;;;;5073919;28;20044;-67
2022/03/28 09:59:52;;;;;;;8.80;6.68;;;8.50;74.30;;;;;;5089981;28;20067;-67
2022/03/28 10:02:24;;;;;;;7.85;6.25;;;8.50;73.70;;;;;;5081999;28;20052;-67
2022/03/28 10:04:52;;;;;;;8.63;6.40;;;8.60;74.20;;;;;;5087621;28;20548;-67
2022/03/28 10:07:19;;;;;;;10.55;7.97;;;8.60;73.60;;;;;;5101847;28;20043;-67
2022/03/28 10:09:45;;;;;;;12.68;8.40;;;8.70;73.40;;;;;;5105992;28;20087;-66
2022/03/28 10:12:11;;;;;;;9.47;8.07;;;8.70;73.20;;;;;;5088909;28;20086;-66
2022/03/28 10:14:38;;;;;;;12.95;9.43;;;8.70;73.10;;;;;;5089691;28;20043;-66
2022/03/28 10:17:05;;;;;;;11.60;8.68;;;8.60;72.60;;;;;;5088905;28;20522;-66
2022/03/28 10:19:33;;;;;;;11.43;7.68;;;8.60;73.00;;;;;;5101914;28;20040;-66
2022/03/28 10:22:03;;;;;;;9.57;7.65;;;8.70;73.40;;;;;;5092918;28;20112;-66
2022/03/28 10:24:33;;;;;;;10.45;7.80;;;8.80;73.40;;;;;;5093881;28;20514;-66
2022/03/28 10:27:00;;;;;;;9.63;8.02;;;8.90;72.80;;;;;;5077694;28;20154;-66
2022/03/28 10:29:43;;;;;;;10.80;7.35;;;8.90;72.60;;;;;;5058218;28;20545;-66
2022/03/28 10:32:18;;;;;;;11.02;7.03;;;9.00;72.50;;;;;;5096069;28;20094;-66
2022/03/28 10:34:52;;;;;;;10.07;7.65;;;9.10;72.20;;;;;;5099321;28;20088;-66
2022/03/28 10:37:34;;;;;;;9.13;7.65;;;9.20;71.80;;;;;;5069026;28;20036;-67
2022/03/28 10:40:26;;;;;;;13.23;8.70;;;9.30;72.10;;;;;;5094073;28;20164;-66
2022/03/28 10:43:12;;;;;;;9.07;7.80;;;9.40;71.30;;;;;;5067051;28;20051;-66
2022/03/28 10:45:42;;;;;;;11.20;8.10;;;9.60;71.30;;;;;;5093841;28;20040;-66
2022/03/28 10:48:09;;;;;;;10.90;8.05;;;9.60;71.00;;;;;;5093670;28;20117;-66
2022/03/28 10:50:54;;;;;;;10.85;7.93;;;9.70;70.00;;;;;;5081279;28;20347;-66
2022/03/28 10:53:33;;;;;;;11.43;8.13;;;9.80;70.30;;;;;;5104238;28;20040;-66
2022/03/28 10:56:05;;;;;;;9.90;8.27;;;9.80;70.60;;;;;;5099977;28;20043;-66
2022/03/28 10:58:37;;;;;;;9.43;8.10;;;9.90;70.30;;;;;;5097935;28;20051;-66
2022/03/28 11:01:06;;;;;;;11.05;8.50;;;9.90;69.60;;;;;;5078052;28;20051;-66
2022/03/28 11:03:53;;;;;;;12.27;9.35;;;9.90;70.20;;;;;;5099656;28;20039;-66
2022/03/28 11:06:38;;;;;;;11.20;9.02;;;10.00;69.50;;;;;;5101913;28;20111;-66
2022/03/28 11:09:04;;;;;;;12.18;8.13;;;10.00;69.50;;;;;;5079265;28;20036;-67
2022/03/28 11:11:32;;;;;;;10.83;8.63;;;10.00;67.90;;;;;;5105434;28;20517;-67
2022/03/28 11:14:06;;;;;;;12.05;9.27;;;10.00;68.90;;;;;;5105317;28;20078;-67
2022/03/28 11:16:49;;;;;;;12.80;8.33;;;10.10;69.00;;;;;;5069992;28;20039;-67
2022/03/28 11:19:35;;;;;;;11.27;8.40;;;10.10;68.10;;;;;;5090581;28;20342;-67
2022/03/28 11:22:04;;;;;;;10.27;8.60;;;10.30;68.20;;;;;;5082920;28;20294;-67
2022/03/28 11:24:42;;;;;;;10.73;8.87;;;10.40;67.20;;;;;;5099793;28;20843;-67
2022/03/28 11:27:08;;;;;;;11.00;9.23;;;10.30;67.50;;;;;;5084688;28;20277;-67
2022/03/28 11:29:34;;;;;;;10.47;8.57;;;10.50;68.40;;;;;;5094810;28;20286;-67
2022/03/28 11:32:10;;;;;;;12.17;9.13;;;10.70;68.20;;;;;;5130417;27;20845;-67
2022/03/28 11:34:36;;;;;;;10.27;8.73;;;10.80;67.90;;;;;;5120978;27;20048;-67
2022/03/28 11:37:03;;;;;;;10.43;9.03;;;10.90;67.30;;;;;;5112675;27;20282;-67
2022/03/28 11:39:31;;;;;;;13.10;10.33;;;11.00;66.40;;;;;;5093990;28;20071;-67
2022/03/28 11:41:58;;;;;;;13.53;10.20;;;11.20;67.20;;;;;;5078717;28;20286;-67
2022/03/28 11:44:27;;;;;;;10.67;9.57;;;11.30;66.70;;;;;;5093682;28;20312;-67
2022/03/28 11:46:55;;;;;;;12.70;9.43;;;11.50;66.60;;;;;;5062570;28;20689;-67
2022/03/28 11:49:21;;;;;;;12.67;8.60;;;11.60;66.20;;;;;;5093724;28;20282;-67
2022/03/28 11:51:48;;;;;;;12.23;9.57;;;11.70;65.30;;;;;;5095004;28;20301;-67
2022/03/28 11:54:18;;;;;;;11.63;9.33;;;11.60;65.30;;;;;;5093742;28;20439;-68
2022/03/28 11:59:32;;;;;;;11.87;10.00;;;11.70;64.80;;;;;;5088957;28;20339;-67
2022/03/28 12:02:03;;;;;;;13.23;10.53;;;11.80;65.00;;;;;;5100749;27;20360;-67
2022/03/28 12:04:29;;;;;;;13.93;11.50;;;11.70;64.60;;;;;;5090745;28;20782;-68
2022/03/28 12:06:54;;;;;;;14.17;12.43;;;11.70;64.30;;;;;;5092378;28;20274;-68
2022/03/28 12:09:21;;;;;;;13.73;12.33;;;11.80;65.00;;;;;;5092339;28;20282;-68
2022/03/28 12:11:49;;;;;;;13.70;12.30;;;11.80;64.00;;;;;;5108070;27;20130;-68
2022/03/28 12:14:15;;;;;;;16.20;13.40;;;11.80;64.50;;;;;;5091840;28;20381;-68
2022/03/28 12:16:52;;;;;;;14.57;12.77;;;11.90;64.60;;;;;;5091884;28;20278;-68
2022/03/28 12:19:22;;;;;;;14.90;13.40;;;11.90;64.50;;;;;;5073713;28;20281;-68
2022/03/28 12:21:50;;;;;;;14.40;12.90;;;11.90;64.20;;;;;;5074708;28;20732;-67
2022/03/28 12:24:16;;;;;;;16.23;14.13;;;12.00;63.50;;;;;;5074721;28;20686;-67
2022/03/28 12:26:47;;;;;;;16.33;12.87;;;12.00;63.70;;;;;;5091402;28;20296;-68
2022/03/28 12:29:14;;;;;;;15.03;12.33;;;12.00;64.00;;;;;;5092420;28;20278;-68
2022/03/28 12:31:45;;;;;;;16.17;12.60;;;12.20;64.10;;;;;;5125076;27;20301;-68
2022/03/28 12:34:12;;;;;;;18.13;13.13;;;12.20;63.60;;;;;;5080439;28;20278;-68
2022/03/28 12:36:38;;;;;;;15.77;13.13;;;12.10;63.80;;;;;;5074901;28;20276;-68
2022/03/28 12:39:10;;;;;;;14.60;13.10;;;12.10;63.80;;;;;;5094405;28;20281;-68
2022/03/28 12:41:46;;;;;;;15.43;13.13;;;12.10;63.50;;;;;;5104725;28;20544;-68
2022/03/28 12:44:17;;;;;;;16.13;13.60;;;12.10;63.90;;;;;;5078256;28;20765;-68
2022/03/28 12:46:44;;;;;;;16.33;13.03;;;12.10;63.50;;;;;;5104976;28;20285;-68
2022/03/28 12:49:14;;;;;;;15.03;13.43;;;12.00;62.80;;;;;;5106253;28;20293;-68
2022/03/28 12:51:40;;;;;;;15.90;13.30;;;11.90;63.60;;;;;;5106140;28;20301;-68
2022/03/28 12:54:21;;;;;;;18.63;13.80;;;12.10;64.20;;;;;;5103912;28;20281;-68
2022/03/28 12:56:56;;;;;;;14.47;12.60;;;12.20;63.70;;;;;;5105689;28;20273;-68